Time;durP1;ratioP1;P1;durP2;ratioP2;P2;SDS_P1;SDS_P2;PMS_P1;PMS_P2;Temp;Humidity;BMP_temperature;BMP_pressure;BME280_temperature;BME280_humidity;BME280_pressure;Samples;Min_cycle;Max_cycle;Signal;HPM_P1;HPM_P2
2021/03/03 00:02:18;;;;;;;16.37;10.67;;;6.90;99.90;;;;;;4986275;28;20236;-65
2021/03/03 00:04:44;;;;;;;22.77;11.90;;;6.90;99.90;;;;;;4969496;28;20177;-64
2021/03/03 00:07:09;;;;;;;20.23;11.37;;;6.90;99.90;;;;;;4971792;28;20205;-65
2021/03/03 00:09:35;;;;;;;21.37;12.00;;;6.90;99.90;;;;;;4973148;28;20193;-65
2021/03/03 00:12:00;;;;;;;18.40;11.63;;;6.90;99.90;;;;;;4990503;28;20173;-64
2021/03/03 00:14:26;;;;;;;19.47;11.13;;;6.80;99.90;;;;;;4990253;28;20173;-65
2021/03/03 00:16:51;;;;;;;16.70;10.80;;;6.80;99.90;;;;;;4989688;28;20200;-65
2021/03/03 00:19:17;;;;;;;18.07;11.83;;;6.80;99.90;;;;;;4973911;28;20280;-65
2021/03/03 00:21:43;;;;;;;16.93;11.23;;;6.80;99.90;;;;;;4971064;28;20189;-64
2021/03/03 00:24:09;;;;;;;21.07;11.67;;;6.70;99.90;;;;;;4985782;28;20184;-65
2021/03/03 00:26:34;;;;;;;19.10;10.90;;;6.80;99.90;;;;;;4981079;28;20177;-65
2021/03/03 00:29:00;;;;;;;16.93;11.10;;;6.70;99.90;;;;;;4951830;28;587330;-65
2021/03/03 00:31:25;;;;;;;21.23;11.57;;;6.70;99.90;;;;;;4979222;28;20622;-64
2021/03/03 00:33:51;;;;;;;20.50;10.73;;;6.70;99.90;;;;;;4994815;28;20172;-64
2021/03/03 00:36:17;;;;;;;21.53;12.50;;;6.70;99.90;;;;;;4988888;28;20189;-65
2021/03/03 00:38:42;;;;;;;20.40;12.40;;;6.70;99.90;;;;;;4975539;28;20609;-65
2021/03/03 00:41:08;;;;;;;21.70;11.77;;;6.70;99.90;;;;;;4980064;28;20189;-65
2021/03/03 00:43:34;;;;;;;21.73;11.73;;;6.70;99.90;;;;;;4994859;28;20180;-64
2021/03/03 00:46:00;;;;;;;22.07;12.73;;;6.80;99.90;;;;;;4990202;28;20181;-65
2021/03/03 00:48:25;;;;;;;20.27;11.33;;;6.80;99.90;;;;;;4975465;28;20205;-64
2021/03/03 00:50:51;;;;;;;17.43;10.60;;;6.80;99.90;;;;;;4974489;28;20647;-64
2021/03/03 00:53:17;;;;;;;20.80;11.10;;;6.80;99.90;;;;;;4975132;28;20196;-65
2021/03/03 00:55:42;;;;;;;22.63;12.33;;;6.80;99.90;;;;;;4974963;28;20268;-65
2021/03/03 00:58:08;;;;;;;20.60;11.70;;;6.80;99.90;;;;;;4975172;28;20219;-64
2021/03/03 01:00:35;;;;;;;21.10;11.57;;;6.80;99.90;;;;;;4974933;28;20186;-65
2021/03/03 01:03:01;;;;;;;21.13;11.27;;;6.80;99.90;;;;;;4975123;28;20186;-65
2021/03/03 01:05:26;;;;;;;19.73;11.67;;;6.80;99.90;;;;;;4975129;28;20232;-65
2021/03/03 01:07:52;;;;;;;21.53;11.50;;;6.70;99.90;;;;;;4974765;28;20201;-64
2021/03/03 01:10:18;;;;;;;21.90;11.83;;;6.70;99.90;;;;;;4974893;28;20681;-65
2021/03/03 01:12:43;;;;;;;21.17;12.13;;;6.60;99.90;;;;;;4974548;28;20181;-65
2021/03/03 01:15:11;;;;;;;20.77;12.10;;;6.60;99.90;;;;;;4974724;28;20216;-64
2021/03/03 01:17:37;;;;;;;20.17;11.47;;;6.60;99.90;;;;;;4974700;28;20313;-63
2021/03/03 01:20:04;;;;;;;18.13;10.70;;;6.60;99.90;;;;;;4974396;28;20276;-64
2021/03/03 01:22:30;;;;;;;20.80;11.97;;;6.50;99.90;;;;;;4975026;28;20216;-65
2021/03/03 01:24:55;;;;;;;19.47;12.03;;;6.50;99.90;;;;;;4974608;28;20601;-64
2021/03/03 01:27:21;;;;;;;20.80;12.23;;;6.50;99.90;;;;;;4974447;28;20205;-65
2021/03/03 01:29:46;;;;;;;20.37;11.93;;;6.40;99.90;;;;;;4982114;28;20271;-64
2021/03/03 01:32:12;;;;;;;23.97;12.03;;;6.40;99.90;;;;;;4993680;28;20181;-65
2021/03/03 01:34:38;;;;;;;23.30;13.47;;;6.30;99.90;;;;;;4987236;28;20192;-65
2021/03/03 01:37:03;;;;;;;23.97;11.83;;;6.30;99.90;;;;;;4974319;28;20205;-65
2021/03/03 01:39:29;;;;;;;22.20;12.87;;;6.30;99.90;;;;;;4978576;28;20173;-65
2021/03/03 01:41:54;;;;;;;19.67;11.93;;;6.30;99.90;;;;;;4992207;28;20180;-65
2021/03/03 01:44:20;;;;;;;22.87;12.23;;;6.30;99.90;;;;;;4973611;28;20260;-65
2021/03/03 01:46:46;;;;;;;21.83;12.10;;;6.30;99.90;;;;;;4974384;28;20189;-64
2021/03/03 01:49:12;;;;;;;19.67;11.67;;;6.30;99.90;;;;;;4992990;28;20624;-65
2021/03/03 01:51:38;;;;;;;24.77;13.37;;;6.20;99.90;;;;;;4971330;28;20188;-65
2021/03/03 01:54:04;;;;;;;21.27;12.60;;;6.20;99.90;;;;;;4973967;28;20173;-64
2021/03/03 01:56:29;;;;;;;19.10;12.17;;;6.10;99.90;;;;;;4979974;28;20231;-63
2021/03/03 01:58:55;;;;;;;23.67;12.57;;;6.10;99.90;;;;;;4993546;28;20733;-65
2021/03/03 02:01:21;;;;;;;21.87;11.73;;;6.10;99.90;;;;;;4974480;28;20189;-64
2021/03/03 02:03:48;;;;;;;20.90;12.50;;;6.10;99.90;;;;;;4974169;28;20358;-65
2021/03/03 02:06:30;;;;;;;25.30;13.03;;;6.20;99.90;;;;;;4990925;28;20202;-64
2021/03/03 02:09:07;;;;;;;23.47;13.33;;;6.20;99.90;;;;;;4993599;28;20662;-65
2021/03/03 02:11:40;;;;;;;21.47;11.27;;;6.20;99.90;;;;;;4973376;28;20249;-64
2021/03/03 02:14:14;;;;;;;22.23;13.00;;;6.20;99.90;;;;;;4973795;28;20239;-65
2021/03/03 02:16:40;;;;;;;20.87;11.77;;;6.20;99.90;;;;;;4973542;28;20188;-65
2021/03/03 02:19:09;;;;;;;25.20;12.43;;;6.20;99.90;;;;;;4973929;28;20792;-65
2021/03/03 02:21:36;;;;;;;25.43;13.33;;;6.20;99.90;;;;;;4973016;28;20312;-64
2021/03/03 02:24:12;;;;;;;23.97;12.17;;;6.20;99.90;;;;;;4973080;28;20561;-65
2021/03/03 02:26:39;;;;;;;20.67;12.90;;;6.10;99.90;;;;;;4973425;28;20643;-65
2021/03/03 02:29:12;;;;;;;26.47;12.43;;;6.10;99.90;;;;;;5021804;22;20225;-65
2021/03/03 02:31:41;;;;;;;23.33;12.70;;;6.00;99.90;;;;;;4974005;28;20998;-65
2021/03/03 02:34:07;;;;;;;20.37;11.93;;;6.00;99.90;;;;;;4973334;28;20169;-65
2021/03/03 02:36:36;;;;;;;27.37;12.70;;;6.00;99.90;;;;;;4989592;28;20595;-65
2021/03/03 02:39:04;;;;;;;21.13;11.70;;;6.00;99.90;;;;;;4979427;28;20694;-65
2021/03/03 02:41:31;;;;;;;20.37;12.17;;;6.00;99.90;;;;;;4981731;28;20239;-65
2021/03/03 02:43:59;;;;;;;25.20;12.80;;;6.00;99.90;;;;;;4992829;28;20256;-65
2021/03/03 02:46:26;;;;;;;21.37;12.30;;;6.00;99.90;;;;;;4984665;28;20177;-64
2021/03/03 02:48:52;;;;;;;21.17;12.17;;;6.00;99.90;;;;;;4973276;28;20335;-65
2021/03/03 02:51:19;;;;;;;19.77;12.73;;;6.00;99.90;;;;;;4980644;28;20252;-67
2021/03/03 02:53:45;;;;;;;16.97;11.23;;;6.00;99.90;;;;;;4977962;28;20663;-67
2021/03/03 02:56:11;;;;;;;25.83;12.23;;;6.00;99.90;;;;;;4973007;28;20261;-68
2021/03/03 02:58:37;;;;;;;25.30;12.57;;;6.00;99.90;;;;;;4975785;28;20228;-67
2021/03/03 03:01:06;;;;;;;21.97;13.20;;;6.00;99.90;;;;;;4978935;28;20188;-68
2021/03/03 03:03:48;;;;;;;20.07;12.50;;;6.00;99.90;;;;;;4995426;28;20192;-69
2021/03/03 03:06:24;;;;;;;21.43;13.23;;;6.00;99.90;;;;;;4989828;28;20173;-69
2021/03/03 03:08:53;;;;;;;22.53;12.83;;;6.00;99.90;;;;;;4975581;28;20196;-67
2021/03/03 03:11:23;;;;;;;17.33;12.03;;;6.00;99.90;;;;;;4981393;28;20546;-68
2021/03/03 03:13:52;;;;;;;25.57;12.57;;;6.00;99.90;;;;;;4995143;28;20179;-70
2021/03/03 03:16:17;;;;;;;24.13;12.80;;;6.00;99.90;;;;;;4972134;28;20173;-70
2021/03/03 03:18:51;;;;;;;24.03;12.20;;;6.00;99.90;;;;;;4975829;28;20209;-70
2021/03/03 03:21:18;;;;;;;22.53;11.73;;;6.00;99.90;;;;;;4979576;28;20172;-70
2021/03/03 03:23:46;;;;;;;22.60;12.97;;;6.00;99.90;;;;;;4994833;28;20226;-70
2021/03/03 03:26:12;;;;;;;21.57;12.63;;;6.00;99.90;;;;;;4991593;28;20178;-69
2021/03/03 03:28:41;;;;;;;20.33;11.80;;;6.00;99.90;;;;;;4974981;28;20217;-67
2021/03/03 03:31:08;;;;;;;22.13;13.00;;;6.10;99.90;;;;;;4959712;28;20181;-69
2021/03/03 03:33:34;;;;;;;23.30;12.60;;;6.00;99.90;;;;;;4994469;28;20226;-68
2021/03/03 03:36:05;;;;;;;21.83;11.90;;;6.00;99.90;;;;;;4976402;28;20272;-66
2021/03/03 03:38:32;;;;;;;21.37;11.73;;;6.00;99.90;;;;;;4975088;28;20212;-66
2021/03/03 03:41:03;;;;;;;23.00;12.63;;;6.00;99.90;;;;;;4991974;28;20208;-68
2021/03/03 03:43:32;;;;;;;23.93;12.73;;;6.00;99.90;;;;;;4994014;28;20255;-71
2021/03/03 03:45:59;;;;;;;22.13;12.13;;;6.00;99.90;;;;;;4976690;28;20209;-67
2021/03/03 03:48:25;;;;;;;23.53;12.30;;;6.00;99.90;;;;;;4957844;28;20572;-67
2021/03/03 03:50:51;;;;;;;20.47;11.83;;;6.00;99.90;;;;;;4989499;28;20189;-69
2021/03/03 03:53:18;;;;;;;28.67;12.43;;;5.90;99.90;;;;;;4994677;28;20212;-68
2021/03/03 03:55:44;;;;;;;22.07;12.43;;;5.90;99.90;;;;;;4979765;28;20185;-67
2021/03/03 03:58:09;;;;;;;22.57;13.13;;;6.00;99.90;;;;;;4974745;28;20212;-67
2021/03/03 04:00:35;;;;;;;23.53;12.37;;;5.90;99.90;;;;;;4986507;28;20181;-66
2021/03/03 04:03:01;;;;;;;26.17;13.43;;;5.90;99.90;;;;;;4985368;28;20177;-67
2021/03/03 04:05:28;;;;;;;22.47;12.27;;;5.90;99.90;;;;;;4974891;28;20651;-66
2021/03/03 04:07:54;;;;;;;20.47;12.03;;;5.80;99.90;;;;;;4984304;28;20208;-69
2021/03/03 04:10:25;;;;;;;19.20;12.00;;;5.90;99.90;;;;;;4997405;28;20234;-66
2021/03/03 04:12:51;;;;;;;22.33;12.53;;;5.90;99.90;;;;;;4990604;28;20189;-67
2021/03/03 04:15:17;;;;;;;19.50;12.00;;;5.90;99.90;;;;;;4978560;28;20406;-68
2021/03/03 04:17:43;;;;;;;22.63;12.13;;;5.90;99.90;;;;;;4982678;28;20216;-68
2021/03/03 04:20:10;;;;;;;18.60;11.80;;;5.90;99.90;;;;;;4997371;28;20180;-67
2021/03/03 04:22:37;;;;;;;28.33;13.13;;;5.90;99.90;;;;;;4993819;28;20240;-68
2021/03/03 04:25:04;;;;;;;21.97;12.23;;;5.90;99.90;;;;;;4978058;28;20170;-71
2021/03/03 04:27:30;;;;;;;29.13;14.10;;;5.80;99.90;;;;;;4979983;28;20244;-67
2021/03/03 04:29:55;;;;;;;21.70;13.20;;;5.90;99.90;;;;;;4997363;28;20181;-68
2021/03/03 04:32:21;;;;;;;22.03;13.03;;;5.90;99.90;;;;;;4977835;28;20711;-66
2021/03/03 04:34:47;;;;;;;21.53;12.73;;;5.90;99.90;;;;;;4977152;28;20200;-69
2021/03/03 04:37:12;;;;;;;25.40;12.87;;;5.90;99.90;;;;;;4994487;28;20291;-68
2021/03/03 04:39:38;;;;;;;22.30;12.93;;;6.00;99.90;;;;;;4993453;28;20189;-66
2021/03/03 04:42:04;;;;;;;17.73;12.00;;;6.00;99.90;;;;;;4977310;28;20166;-67
2021/03/03 04:44:30;;;;;;;22.13;13.07;;;6.00;99.90;;;;;;4979573;28;20166;-67
2021/03/03 04:46:56;;;;;;;24.80;12.97;;;6.10;99.90;;;;;;4996857;28;20264;-70
2021/03/03 04:49:21;;;;;;;20.80;12.77;;;6.10;99.90;;;;;;4996603;28;20275;-68
2021/03/03 04:51:47;;;;;;;19.07;12.53;;;6.10;99.90;;;;;;4977063;28;20189;-71
2021/03/03 04:54:13;;;;;;;22.17;12.10;;;6.10;99.90;;;;;;4976373;28;20221;-64
2021/03/03 04:56:38;;;;;;;28.63;13.20;;;6.00;99.90;;;;;;4993075;28;20181;-64
2021/03/03 04:59:04;;;;;;;25.77;12.67;;;6.00;99.90;;;;;;4994605;28;20193;-65
2021/03/03 05:01:32;;;;;;;21.50;12.57;;;6.00;99.90;;;;;;4991970;28;20246;-64
2021/03/03 05:03:58;;;;;;;20.73;11.80;;;6.00;99.90;;;;;;4994549;28;20172;-64
2021/03/03 05:06:23;;;;;;;19.97;11.70;;;5.90;99.90;;;;;;4979451;28;20313;-63
2021/03/03 05:08:49;;;;;;;24.07;12.33;;;5.90;99.90;;;;;;4957718;28;20643;-63
2021/03/03 05:11:15;;;;;;;21.90;13.63;;;5.80;99.90;;;;;;4987383;28;20264;-64
2021/03/03 05:13:40;;;;;;;23.67;13.23;;;5.80;99.90;;;;;;4994069;28;20523;-64
2021/03/03 05:16:06;;;;;;;21.17;12.17;;;5.80;99.90;;;;;;4982475;28;20369;-63
2021/03/03 05:18:31;;;;;;;24.50;13.50;;;5.80;99.90;;;;;;4973813;28;20206;-64
2021/03/03 05:20:57;;;;;;;26.07;12.97;;;5.80;99.90;;;;;;4984326;28;20181;-63
2021/03/03 05:23:30;;;;;;;23.23;13.63;;;5.90;99.90;;;;;;4994237;28;20721;-63
2021/03/03 05:25:57;;;;;;;23.87;13.67;;;5.90;99.90;;;;;;4984758;28;20186;-64
2021/03/03 05:28:22;;;;;;;23.23;13.47;;;5.90;99.90;;;;;;4974703;28;20233;-64
2021/03/03 05:30:48;;;;;;;24.83;12.40;;;6.00;99.90;;;;;;4981761;28;20619;-64
2021/03/03 05:33:25;;;;;;;24.67;13.00;;;6.00;99.90;;;;;;4994036;28;20181;-63
2021/03/03 05:35:52;;;;;;;22.00;13.03;;;6.00;99.90;;;;;;4986001;28;20197;-63
2021/03/03 05:38:17;;;;;;;21.77;12.57;;;6.10;99.90;;;;;;4974540;28;20209;-64
2021/03/03 05:40:50;;;;;;;24.90;13.83;;;6.10;99.90;;;;;;4979717;28;20181;-65
2021/03/03 05:43:16;;;;;;;19.53;12.60;;;6.20;99.90;;;;;;4985752;28;20341;-64
2021/03/03 05:45:42;;;;;;;23.60;13.43;;;6.20;99.90;;;;;;4979190;28;20185;-63
2021/03/03 05:48:23;;;;;;;21.67;12.80;;;6.20;99.90;;;;;;4991939;28;20203;-65
2021/03/03 05:50:59;;;;;;;24.97;13.13;;;6.20;99.90;;;;;;4973432;28;20647;-64
2021/03/03 05:53:26;;;;;;;22.70;12.67;;;6.20;99.90;;;;;;4975082;28;20177;-65
2021/03/03 05:55:56;;;;;;;21.37;13.07;;;6.20;99.90;;;;;;4973924;28;20578;-64
2021/03/03 05:58:23;;;;;;;22.63;12.67;;;6.20;99.90;;;;;;4976622;28;20758;-65
2021/03/03 06:00:50;;;;;;;25.47;13.57;;;6.20;99.90;;;;;;4993216;28;20231;-64
2021/03/03 06:03:19;;;;;;;25.00;12.83;;;6.20;99.90;;;;;;4991962;28;20202;-65
2021/03/03 06:05:48;;;;;;;23.53;13.10;;;6.10;99.90;;;;;;4974003;28;20251;-65
2021/03/03 06:08:16;;;;;;;24.27;13.93;;;6.10;99.90;;;;;;4974402;28;20201;-65
2021/03/03 06:10:42;;;;;;;22.77;13.53;;;6.10;99.90;;;;;;4973935;28;20636;-64
2021/03/03 06:13:09;;;;;;;23.10;12.57;;;6.00;99.90;;;;;;4973940;28;20177;-63
2021/03/03 06:15:34;;;;;;;24.83;13.87;;;5.90;99.90;;;;;;4992230;28;20216;-64
2021/03/03 06:18:01;;;;;;;23.83;12.17;;;5.90;99.90;;;;;;4993162;28;20239;-64
2021/03/03 06:20:27;;;;;;;20.37;12.70;;;5.90;99.90;;;;;;4975808;28;20186;-64
2021/03/03 06:22:52;;;;;;;19.33;12.30;;;5.90;99.90;;;;;;4973692;28;20553;-64
2021/03/03 06:25:22;;;;;;;25.43;13.50;;;5.90;99.90;;;;;;4988780;28;20192;-64
2021/03/03 06:27:48;;;;;;;22.53;13.17;;;5.90;99.90;;;;;;4993112;28;20212;-64
2021/03/03 06:30:18;;;;;;;22.37;12.57;;;6.00;99.90;;;;;;4978011;28;20263;-64
2021/03/03 06:32:58;;;;;;;23.43;13.00;;;6.00;99.90;;;;;;4973303;28;20178;-63
2021/03/03 06:35:44;;;;;;;25.57;13.53;;;6.00;99.90;;;;;;4988021;28;20322;-64
2021/03/03 06:38:16;;;;;;;24.00;12.80;;;6.10;99.90;;;;;;4990007;28;20223;-64
2021/03/03 06:41:09;;;;;;;21.60;12.73;;;6.10;99.90;;;;;;4972002;28;20177;-64
2021/03/03 06:43:35;;;;;;;21.57;12.57;;;6.20;99.90;;;;;;4975828;28;20199;-64
2021/03/03 06:46:18;;;;;;;25.03;13.23;;;6.20;99.90;;;;;;4993070;28;20442;-64
2021/03/03 06:48:45;;;;;;;23.33;12.93;;;6.30;99.90;;;;;;4974581;28;20585;-64
2021/03/03 06:51:33;;;;;;;26.53;13.57;;;6.40;99.90;;;;;;4973931;28;20181;-64
2021/03/03 06:54:02;;;;;;;22.37;13.07;;;6.40;99.90;;;;;;4973005;28;20220;-62
2021/03/03 06:56:40;;;;;;;20.77;13.30;;;6.40;99.90;;;;;;4982629;28;20685;-64
2021/03/03 06:59:31;;;;;;;29.03;14.23;;;6.40;99.90;;;;;;4990893;28;20697;-64
2021/03/03 07:02:10;;;;;;;25.03;13.07;;;6.40;99.90;;;;;;4963529;28;20200;-64
2021/03/03 07:04:41;;;;;;;26.57;12.50;;;6.40;99.90;;;;;;4972916;28;20204;-64
2021/03/03 07:07:09;;;;;;;24.53;13.70;;;6.50;99.90;;;;;;4973117;28;20549;-63
2021/03/03 07:09:58;;;;;;;27.40;13.77;;;6.50;99.90;;;;;;4972835;28;20259;-64
2021/03/03 07:12:26;;;;;;;26.60;12.87;;;6.60;99.90;;;;;;4972666;28;20181;-64
2021/03/03 07:14:58;;;;;;;28.83;13.50;;;6.60;99.90;;;;;;4978877;28;20258;-64
2021/03/03 07:17:35;;;;;;;19.80;11.93;;;6.70;99.90;;;;;;4992157;28;20217;-64
2021/03/03 07:20:17;;;;;;;23.37;12.33;;;6.70;99.90;;;;;;4984819;28;20228;-64
2021/03/03 07:22:54;;;;;;;28.77;12.87;;;6.80;99.90;;;;;;4972886;28;20228;-64
2021/03/03 07:25:21;;;;;;;24.57;14.13;;;6.80;99.90;;;;;;4981633;28;20181;-64
2021/03/03 07:27:48;;;;;;;23.17;12.77;;;6.80;99.90;;;;;;4991657;28;20686;-64
2021/03/03 07:30:19;;;;;;;24.27;12.33;;;6.90;99.90;;;;;;4984055;28;20276;-64
2021/03/03 07:32:45;;;;;;;25.37;12.57;;;7.00;99.90;;;;;;4972680;28;20212;-63
2021/03/03 07:35:12;;;;;;;22.80;12.23;;;7.10;99.90;;;;;;4978542;28;20184;-64
2021/03/03 07:37:48;;;;;;;22.20;12.53;;;7.20;99.90;;;;;;4991626;28;20220;-64
2021/03/03 07:40:15;;;;;;;23.67;12.47;;;7.20;99.90;;;;;;4985331;28;20184;-64
2021/03/03 07:42:50;;;;;;;24.17;13.83;;;7.30;99.90;;;;;;4978337;28;20185;-64
2021/03/03 07:45:17;;;;;;;20.30;12.60;;;7.20;99.90;;;;;;4996013;28;20203;-63
2021/03/03 07:47:43;;;;;;;27.33;12.80;;;7.30;99.90;;;;;;4992105;28;20295;-64
2021/03/03 07:50:12;;;;;;;21.87;12.63;;;7.30;99.90;;;;;;4975999;28;20546;-64
2021/03/03 07:52:43;;;;;;;28.00;13.13;;;7.40;99.90;;;;;;4977809;28;20553;-64
2021/03/03 07:55:10;;;;;;;20.93;12.73;;;7.40;99.90;;;;;;4995861;28;20251;-64
2021/03/03 07:57:39;;;;;;;23.73;12.87;;;7.60;99.90;;;;;;4994569;28;20240;-65
2021/03/03 08:00:11;;;;;;;25.33;12.60;;;7.70;99.90;;;;;;4976173;28;20738;-64
2021/03/03 08:02:51;;;;;;;26.90;12.33;;;7.90;99.90;;;;;;4976260;28;20624;-64
2021/03/03 08:05:34;;;;;;;22.77;12.80;;;8.20;99.90;;;;;;4980218;28;20636;-64
2021/03/03 08:08:29;;;;;;;21.27;13.20;;;8.50;99.90;;;;;;4978509;28;20553;-64
2021/03/03 08:10:57;;;;;;;21.67;11.77;;;8.70;99.90;;;;;;4973385;28;20670;-64
2021/03/03 08:13:38;;;;;;;25.20;11.20;;;8.80;99.90;;;;;;4976087;28;20598;-65
2021/03/03 08:16:08;;;;;;;20.70;12.30;;;9.00;99.90;;;;;;4992328;28;20180;-65
2021/03/03 08:18:51;;;;;;;19.97;11.27;;;9.30;99.90;;;;;;4995276;28;20215;-64
2021/03/03 08:21:25;;;;;;;21.03;11.83;;;9.50;99.90;;;;;;4977242;28;20191;-65
2021/03/03 08:23:51;;;;;;;21.10;11.90;;;9.70;99.90;;;;;;4974822;28;20201;-65
2021/03/03 08:26:16;;;;;;;20.70;11.60;;;9.80;99.90;;;;;;4992608;28;20177;-64
2021/03/03 08:28:50;;;;;;;21.07;11.97;;;10.10;99.90;;;;;;4995442;28;20243;-64
2021/03/03 08:31:16;;;;;;;22.00;12.97;;;10.30;99.90;;;;;;4978289;28;20248;-65
2021/03/03 08:33:48;;;;;;;19.67;12.10;;;10.50;99.90;;;;;;4975559;28;20581;-64
2021/03/03 08:36:30;;;;;;;23.43;11.90;;;10.80;99.90;;;;;;4990748;28;20221;-64
2021/03/03 08:38:55;;;;;;;24.17;12.47;;;11.20;99.90;;;;;;4983700;28;20221;-64
2021/03/03 08:41:27;;;;;;;20.87;11.30;;;11.50;99.90;;;;;;4975200;28;20224;-64
2021/03/03 08:44:09;;;;;;;18.90;11.80;;;11.80;99.90;;;;;;4985088;28;20276;-64
2021/03/03 08:46:41;;;;;;;24.73;12.73;;;12.00;99.90;;;;;;4988896;28;20181;-65
2021/03/03 08:49:09;;;;;;;16.63;11.73;;;12.00;99.90;;;;;;4975504;28;20193;-64
2021/03/03 08:51:45;;;;;;;20.33;12.37;;;12.00;99.90;;;;;;4979143;28;20195;-65
2021/03/03 08:54:14;;;;;;;22.73;13.10;;;12.10;99.90;;;;;;4994492;28;20192;-65
2021/03/03 08:56:43;;;;;;;18.13;11.90;;;12.10;99.90;;;;;;4989174;28;20221;-65
2021/03/03 08:59:11;;;;;;;23.50;12.43;;;12.30;99.90;;;;;;4975145;28;20221;-65
2021/03/03 09:02:05;;;;;;;20.83;12.43;;;12.60;99.90;;;;;;4978808;28;20654;-65
2021/03/03 09:04:41;;;;;;;22.80;13.47;;;13.10;99.90;;;;;;4994657;28;20578;-64
2021/03/03 09:07:13;;;;;;;18.63;11.77;;;13.40;99.90;;;;;;4989379;28;20236;-65
2021/03/03 09:09:49;;;;;;;20.10;11.77;;;13.70;99.90;;;;;;4994324;28;20185;-64
2021/03/03 09:12:16;;;;;;;18.60;12.67;;;13.90;99.90;;;;;;4980330;28;20193;-65
2021/03/03 09:14:44;;;;;;;21.10;11.57;;;14.00;99.90;;;;;;4974749;28;20173;-65
2021/03/03 09:17:12;;;;;;;18.67;12.00;;;14.00;99.90;;;;;;4985047;28;20205;-65
2021/03/03 09:19:38;;;;;;;17.70;11.70;;;14.30;99.90;;;;;;4993990;28;20173;-65
2021/03/03 09:22:21;;;;;;;20.63;12.00;;;14.60;99.90;;;;;;4984658;28;20644;-64
2021/03/03 09:24:52;;;;;;;18.43;12.07;;;15.00;99.90;;;;;;4974810;28;20169;-65
2021/03/03 09:27:19;;;;;;;26.20;13.03;;;15.20;99.90;;;;;;4984781;28;20246;-65
2021/03/03 09:29:46;;;;;;;21.40;11.53;;;15.30;99.90;;;;;;4993344;28;20177;-65
2021/03/03 09:32:13;;;;;;;20.63;11.77;;;15.40;99.90;;;;;;4984951;28;20252;-65
2021/03/03 09:35:00;;;;;;;23.83;12.87;;;15.50;99.90;;;;;;4980395;28;20177;-66
2021/03/03 09:37:26;;;;;;;23.10;12.73;;;15.80;99.90;;;;;;4993805;28;20212;-64
2021/03/03 09:39:53;;;;;;;18.90;11.00;;;16.20;99.90;;;;;;4985928;28;20655;-65
2021/03/03 09:42:19;;;;;;;22.70;12.50;;;16.40;99.90;;;;;;4974456;28;20170;-65
2021/03/03 09:44:49;;;;;;;19.80;12.53;;;16.70;99.90;;;;;;4980235;28;20188;-65
2021/03/03 09:47:34;;;;;;;22.20;12.63;;;16.80;99.90;;;;;;4993885;28;20264;-65
2021/03/03 09:50:02;;;;;;;22.10;11.93;;;17.00;99.90;;;;;;4986763;28;20204;-65
2021/03/03 09:52:42;;;;;;;22.47;11.63;;;17.20;99.90;;;;;;4974538;28;20651;-65
2021/03/03 09:55:12;;;;;;;20.47;11.63;;;17.60;99.90;;;;;;4977936;28;20220;-65
2021/03/03 09:57:38;;;;;;;20.23;11.83;;;18.00;99.90;;;;;;4993245;28;20295;-65
2021/03/03 10:00:10;;;;;;;21.23;11.83;;;18.30;99.90;;;;;;4982581;28;20182;-65
2021/03/03 10:02:39;;;;;;;22.83;12.70;;;18.20;99.90;;;;;;4981128;28;20552;-65
2021/03/03 10:05:05;;;;;;;23.42;11.27;;;18.10;99.90;;;;;;4974182;28;20213;-65
2021/03/03 10:07:31;;;;;;;22.93;12.87;;;18.30;99.90;;;;;;4973988;28;20200;-65
2021/03/03 10:09:59;;;;;;;19.05;11.30;;;18.50;99.90;;;;;;4973492;28;20177;-65
2021/03/03 10:12:35;;;;;;;21.73;12.60;;;18.70;99.90;;;;;;4973554;28;20188;-66
2021/03/03 10:15:07;;;;;;;20.20;11.15;;;19.00;99.90;;;;;;4973775;28;20501;-65
2021/03/03 10:17:50;;;;;;;21.48;12.40;;;19.40;99.90;;;;;;4973761;28;20213;-65
2021/03/03 10:20:48;;;;;;;20.15;12.30;;;19.50;99.90;;;;;;4973480;28;20181;-65
2021/03/03 10:23:19;;;;;;;25.52;13.05;;;19.80;99.90;;;;;;4973913;28;20178;-65
2021/03/03 10:25:47;;;;;;;20.25;12.57;;;19.90;99.90;;;;;;4973519;28;20256;-65
2021/03/03 10:28:18;;;;;;;24.33;12.52;;;20.10;99.90;;;;;;4973564;28;20221;-65
2021/03/03 10:30:49;;;;;;;21.52;11.25;;;20.20;99.90;;;;;;4973194;28;20174;-65
2021/03/03 10:33:38;;;;;;;20.88;13.02;;;20.10;99.90;;;;;;4973780;28;20583;-65
2021/03/03 10:36:16;;;;;;;19.95;12.68;;;20.10;99.90;;;;;;4973468;28;20184;-65
2021/03/03 10:38:54;;;;;;;24.35;13.48;;;20.20;99.90;;;;;;4973174;28;20204;-65
2021/03/03 10:41:28;;;;;;;23.55;13.13;;;20.10;99.90;;;;;;4973092;28;20181;-64
2021/03/03 10:43:54;;;;;;;20.20;13.35;;;20.20;99.90;;;;;;4973445;28;20162;-65
2021/03/03 10:46:21;;;;;;;21.80;12.60;;;20.10;99.90;;;;;;4973343;28;20548;-65
2021/03/03 10:48:48;;;;;;;19.50;13.48;;;20.60;99.90;;;;;;4973102;28;20649;-65
2021/03/03 10:51:16;;;;;;;28.25;14.48;;;20.70;99.90;;;;;;4972419;28;20184;-66
2021/03/03 10:53:49;;;;;;;28.38;15.10;;;20.60;99.90;;;;;;4972887;28;20177;-65
2021/03/03 10:56:23;;;;;;;25.33;13.80;;;20.30;99.90;;;;;;4973093;28;20177;-66
2021/03/03 10:58:49;;;;;;;29.52;14.85;;;20.30;99.90;;;;;;4972924;28;20290;-65
2021/03/03 11:01:15;;;;;;;28.08;15.73;;;20.60;99.90;;;;;;4972790;28;20188;-66
2021/03/03 11:03:53;;;;;;;25.55;14.88;;;20.70;99.90;;;;;;4972941;28;20643;-66
2021/03/03 11:06:20;;;;;;;28.42;15.05;;;21.00;99.90;;;;;;4973032;28;20256;-66
2021/03/03 11:08:46;;;;;;;26.33;16.17;;;21.30;99.90;;;;;;4972707;28;20212;-66
2021/03/03 11:11:12;;;;;;;30.17;15.07;;;21.30;99.90;;;;;;4972632;28;20579;-63
2021/03/03 11:13:38;;;;;;;31.05;15.45;;;21.80;99.90;;;;;;4972703;28;20542;-63
2021/03/03 11:16:04;;;;;;;28.65;16.38;;;22.00;99.90;;;;;;4972723;28;20178;-66
2021/03/03 11:18:30;;;;;;;24.92;13.65;;;22.10;99.90;;;;;;4972682;28;20228;-64
2021/03/03 11:20:56;;;;;;;30.77;16.02;;;22.30;99.90;;;;;;4972557;28;20564;-63
2021/03/03 11:23:21;;;;;;;26.05;15.15;;;22.40;99.90;;;;;;4972916;28;20169;-63
2021/03/03 11:25:47;;;;;;;27.17;14.88;;;22.20;99.90;;;;;;4972492;28;20197;-64
2021/03/03 11:28:13;;;;;;;26.35;16.42;;;21.60;99.90;;;;;;4977352;28;20217;-63
2021/03/03 11:30:39;;;;;;;23.65;15.95;;;21.70;99.90;;;;;;4991669;28;20272;-64
2021/03/03 11:33:05;;;;;;;27.13;16.90;;;21.90;99.90;;;;;;4992061;28;20204;-64
2021/03/03 11:35:30;;;;;;;30.52;17.08;;;22.00;99.90;;;;;;4973955;28;20178;-65
2021/03/03 11:37:56;;;;;;;26.30;15.85;;;21.80;99.90;;;;;;4977370;28;20311;-64
2021/03/03 11:40:22;;;;;;;25.25;16.38;;;21.70;99.90;;;;;;4991033;28;20169;-64
2021/03/03 11:42:48;;;;;;;28.48;16.52;;;21.90;99.90;;;;;;4990494;28;20170;-63
2021/03/03 11:45:14;;;;;;;27.42;15.23;;;22.00;99.90;;;;;;4991221;28;20263;-64
2021/03/03 11:47:40;;;;;;;27.33;15.85;;;22.20;99.90;;;;;;4990053;28;20216;-65
2021/03/03 11:50:06;;;;;;;27.23;16.45;;;22.60;99.90;;;;;;4972183;28;20706;-63
2021/03/03 11:52:32;;;;;;;28.27;15.50;;;22.80;99.90;;;;;;4972806;28;20705;-64
2021/03/03 11:54:58;;;;;;;33.53;16.52;;;23.10;99.90;;;;;;4953261;29;20186;-64
2021/03/03 11:57:23;;;;;;;26.63;16.58;;;23.30;99.90;;;;;;4953740;28;20206;-64
2021/03/03 11:59:50;;;;;;;32.42;17.00;;;23.50;99.90;;;;;;4972182;28;20184;-65
2021/03/03 12:02:16;;;;;;;36.97;17.20;;;23.60;99.90;;;;;;4972796;28;20651;-64
2021/03/03 12:04:42;;;;;;;28.48;17.90;;;23.10;99.90;;;;;;4973456;28;20178;-65
2021/03/03 12:07:08;;;;;;;23.08;14.98;;;22.80;99.90;;;;;;4972400;28;20189;-64
2021/03/03 12:09:33;;;;;;;29.15;16.77;;;22.70;99.90;;;;;;4973495;28;20253;-65
2021/03/03 12:12:00;;;;;;;25.45;15.25;;;22.80;99.90;;;;;;4972011;28;20205;-64
2021/03/03 12:14:26;;;;;;;30.00;17.52;;;22.70;99.90;;;;;;4956228;28;20717;-65
2021/03/03 12:16:52;;;;;;;26.67;16.27;;;22.40;99.90;;;;;;4972396;28;20240;-64
2021/03/03 12:19:18;;;;;;;27.30;16.27;;;21.90;99.90;;;;;;4983749;28;20204;-65
2021/03/03 12:21:43;;;;;;;27.40;16.08;;;21.70;99.90;;;;;;4989880;28;20176;-64
2021/03/03 12:24:09;;;;;;;31.20;15.57;;;21.60;99.90;;;;;;4991720;28;20201;-65
2021/03/03 12:26:35;;;;;;;27.67;17.15;;;20.90;99.90;;;;;;4989998;28;20628;-64
2021/03/03 12:29:00;;;;;;;32.30;16.73;;;20.60;99.90;;;;;;4994600;28;20271;-64
2021/03/03 12:31:26;;;;;;;34.30;16.92;;;20.50;99.90;;;;;;4993541;28;20189;-64
2021/03/03 12:33:52;;;;;;;28.23;16.23;;;20.90;99.90;;;;;;4994667;28;20177;-64
2021/03/03 12:36:17;;;;;;;28.00;16.38;;;21.50;99.90;;;;;;4994153;28;20204;-64
2021/03/03 12:38:43;;;;;;;27.40;16.27;;;21.90;99.90;;;;;;4994832;28;20292;-64
2021/03/03 12:41:08;;;;;;;29.50;16.77;;;21.80;99.90;;;;;;4976682;28;20237;-64
2021/03/03 12:43:34;;;;;;;29.27;15.45;;;22.00;99.90;;;;;;4975632;28;20166;-64